Terminal Aerodrome Forecast
Issued by NWS

Home | Current Version | Previous Version | Text Only | Print | Product List | Glossary On
Versions: 1 2 3 4 5 6 7 8 9 10 11 12 13 14 15 16 17 18
000
FTUS41 KBTV 210535
TAFSLK
TAF
KSLK 210535Z 2106/2206 15006KT P6SM SCT045 BKN060 OVC120
      TEMPO 2106/2110 3SM SHRA OVC015
     FM211000 VRB03KT 5SM -SHRA BR OVC010
     FM211200 24007KT 3SM -SHRA BR OVC008
     FM211700 25014G21KT P6SM BKN040
     FM212000 24015G25KT P6SM SCT100
     FM220000 22009KT P6SM FEW250=

USA.gov is the U.S. government's official web portal to all federal, state and local government web resources and services.